Schedule Details

Flight Number: ASX317X
Departure: Wroclaw (EPWR) at 13:40Z
Arrival: Gdansk im. Lecha Walesy (EPGD) at 14:40Z

Weather Information
EPWR 180630Z 33006KT 9000 SCT008 BKN013 00/M01 Q1027
EPGD 180630Z 29002KT 8000 SCT041 M03/M04 Q1026

Schedule Frequency

Route Map